KBBW/BBW METAR and TAF weather

Enter ICAO airport designator
Station Type Date Time Source
KBBW METAR 2020/04/07 02:53 UTC NOAA

KBBW 070253Z AUTO 00000KT 10SM CLR 08/05 A2973 RMK AO2 SLP066 T00780050 53010


Station Type Date Time Source
KBBW Decoded METAR 2020/04/07 02:53 UTC NOAA

BROKEN BOW MUNICIPAL AIRPORT, NE, United States (KBBW) 41-26N 099-38W
Apr 06, 2020 - 10:53 PM EDT / 2020.04.07 0253 UTC
Wind: Calm:0
Visibility: 10 mile(s):0
Sky conditions: clear
Temperature: 46.0 F (7.8 C)
Dew Point: 41.0 F (5.0 C)
Relative Humidity: 82%
Pressure (altimeter): 29.73 in. Hg (1006 hPa)
Pressure tendency: 0.03 inches (1.0 hPa) higher than three hours ago
ob: KBBW 070253Z AUTO 00000KT 10SM CLR 08/05 A2973 RMK AO2 SLP066 T00780050 53010
cycle: 3

Station Type Date Time Source
KBBW TAF UTC NOAA

Error!

Example: see airport list